Time;durP1;ratioP1;P1;durP2;ratioP2;P2;SDS_P1;SDS_P2;PMS_P1;PMS_P2;Temp;Humidity;BMP_temperature;BMP_pressure;BME280_temperature;BME280_humidity;BME280_pressure;Samples;Min_cycle;Max_cycle;Signal;HPM_P1;HPM_P2
2021/10/28 00:14:13;;;;;;;22.63;11.17;;;9.60;99.90;;;;;;5012108;28;20537;-76
2021/10/28 00:16:41;;;;;;;21.37;11.90;;;9.60;99.90;;;;;;5011686;28;20417;-75
2021/10/28 00:19:07;;;;;;;18.57;11.17;;;9.60;99.90;;;;;;5012451;28;20674;-76
2021/10/28 00:21:35;;;;;;;25.20;12.50;;;9.60;99.90;;;;;;5011854;28;20444;-76
2021/10/28 00:24:04;;;;;;;21.47;10.67;;;9.60;99.90;;;;;;5011543;28;20201;-76
2021/10/28 00:26:32;;;;;;;25.20;14.00;;;9.60;99.90;;;;;;5011658;28;20842;-76
2021/10/28 00:29:01;;;;;;;21.67;11.30;;;9.50;99.90;;;;;;5011787;28;20401;-75
2021/10/28 00:31:29;;;;;;;25.37;11.50;;;9.60;99.90;;;;;;5028095;28;20432;-75
2021/10/28 00:33:56;;;;;;;32.40;13.83;;;9.60;99.90;;;;;;5031525;28;20467;-75
2021/10/28 00:36:21;;;;;;;29.33;14.00;;;9.50;99.90;;;;;;5016404;28;20957;-75
2021/10/28 00:38:50;;;;;;;24.90;14.07;;;9.50;99.90;;;;;;4995064;28;20417;-76
2021/10/28 00:41:19;;;;;;;31.43;13.50;;;9.40;99.90;;;;;;5011710;28;20169;-76
2021/10/28 00:43:47;;;;;;;28.73;13.37;;;9.40;99.90;;;;;;5013646;28;20440;-76
2021/10/28 00:46:16;;;;;;;28.40;13.53;;;9.40;99.90;;;;;;5016398;28;20453;-74
2021/10/28 00:48:43;;;;;;;24.37;13.93;;;9.40;99.90;;;;;;5016252;28;20406;-75
2021/10/28 00:51:08;;;;;;;29.50;14.40;;;9.40;99.90;;;;;;5016438;28;20466;-75
2021/10/28 00:53:34;;;;;;;30.43;14.33;;;9.40;99.90;;;;;;5015366;28;20821;-76
2021/10/28 00:56:02;;;;;;;27.13;13.37;;;9.40;99.90;;;;;;5016311;28;20212;-75
2021/10/28 00:58:30;;;;;;;26.10;14.10;;;9.40;99.90;;;;;;5016202;28;20441;-76
2021/10/28 01:00:56;;;;;;;25.13;13.47;;;9.30;99.90;;;;;;5001605;28;20761;-75
2021/10/28 01:03:22;;;;;;;29.40;15.33;;;9.30;99.90;;;;;;4995470;28;20439;-75
2021/10/28 01:05:48;;;;;;;29.90;14.27;;;9.30;99.90;;;;;;4995601;28;20453;-75
2021/10/28 01:08:17;;;;;;;25.93;13.23;;;9.30;99.90;;;;;;5006075;28;20431;-76
2021/10/28 01:10:46;;;;;;;30.83;15.20;;;9.30;99.90;;;;;;5015610;28;20460;-75
2021/10/28 01:13:12;;;;;;;34.80;15.17;;;9.30;99.90;;;;;;5015357;28;20461;-75
2021/10/28 01:15:38;;;;;;;28.90;14.70;;;9.20;99.90;;;;;;5003100;28;20687;-76
2021/10/28 01:18:11;;;;;;;42.83;15.47;;;9.20;99.90;;;;;;5013932;28;20526;-76
2021/10/28 01:20:45;;;;;;;32.70;15.63;;;9.30;99.90;;;;;;5015220;28;20234;-76
2021/10/28 01:23:12;;;;;;;38.80;16.10;;;9.30;99.90;;;;;;5014809;28;20474;-76
2021/10/28 01:25:41;;;;;;;33.47;17.30;;;9.30;99.90;;;;;;5015082;28;20440;-75
2021/10/28 01:28:14;;;;;;;32.20;15.70;;;9.30;99.90;;;;;;5015067;28;20415;-75
2021/10/28 01:30:39;;;;;;;31.43;16.17;;;9.20;99.90;;;;;;5004975;28;20432;-76
2021/10/28 01:33:05;;;;;;;40.90;16.73;;;9.10;99.90;;;;;;4994959;28;20491;-75
2021/10/28 01:35:30;;;;;;;28.63;16.10;;;9.10;99.90;;;;;;5000340;28;20202;-76
2021/10/28 01:37:56;;;;;;;35.97;16.53;;;9.20;99.90;;;;;;5015147;28;20180;-75
2021/10/28 01:40:22;;;;;;;32.87;15.17;;;9.10;99.90;;;;;;5013384;28;20284;-75
2021/10/28 01:42:50;;;;;;;34.13;17.60;;;9.10;99.90;;;;;;5014646;28;20607;-75
2021/10/28 01:45:18;;;;;;;45.83;17.57;;;9.10;99.90;;;;;;5014719;28;20239;-75
2021/10/28 01:47:43;;;;;;;40.33;18.20;;;9.10;99.90;;;;;;5014637;28;20412;-75
2021/10/28 01:50:10;;;;;;;33.53;16.50;;;9.10;99.90;;;;;;5014217;28;20539;-75
2021/10/28 01:52:38;;;;;;;36.67;17.27;;;9.00;99.90;;;;;;5014380;28;20276;-75
2021/10/28 01:55:10;;;;;;;36.23;16.60;;;9.00;99.90;;;;;;5000473;28;20451;-75
2021/10/28 01:57:36;;;;;;;35.93;16.40;;;9.00;99.90;;;;;;4995488;28;20409;-75
2021/10/28 02:00:04;;;;;;;39.23;17.93;;;9.00;99.90;;;;;;4995429;28;20424;-74
2021/10/28 02:02:30;;;;;;;42.00;17.13;;;9.00;99.90;;;;;;4994448;28;20425;-74
2021/10/28 02:04:55;;;;;;;35.03;17.47;;;9.00;99.90;;;;;;5010803;28;20468;-74
2021/10/28 02:07:21;;;;;;;36.27;17.20;;;8.90;99.90;;;;;;5013958;28;20217;-75
2021/10/28 02:09:46;;;;;;;39.80;17.20;;;8.90;99.90;;;;;;5000932;28;20197;-75
2021/10/28 02:12:12;;;;;;;48.20;18.63;;;8.90;99.90;;;;;;5000338;28;20223;-75
2021/10/28 02:14:37;;;;;;;43.80;17.80;;;8.90;99.90;;;;;;5013775;28;20348;-75
2021/10/28 02:17:03;;;;;;;40.73;18.57;;;8.90;99.90;;;;;;5013488;28;20215;-76
2021/10/28 02:19:28;;;;;;;41.03;19.23;;;8.90;99.90;;;;;;5013867;28;20265;-75
2021/10/28 02:21:55;;;;;;;38.70;17.40;;;8.80;99.90;;;;;;5013642;28;20177;-75
2021/10/28 02:24:20;;;;;;;37.73;18.83;;;8.80;99.90;;;;;;5005322;28;20291;-75
2021/10/28 02:26:46;;;;;;;38.47;17.43;;;8.70;99.90;;;;;;5013344;28;20455;-75
2021/10/28 02:29:12;;;;;;;36.93;17.00;;;8.80;99.90;;;;;;5006488;28;20292;-76
2021/10/28 02:31:43;;;;;;;42.03;19.57;;;8.70;99.90;;;;;;5021172;28;20187;-75
2021/10/28 02:34:08;;;;;;;48.90;19.10;;;8.70;99.90;;;;;;5013799;28;20598;-75
2021/10/28 02:36:34;;;;;;;35.90;18.70;;;8.70;99.90;;;;;;5013362;28;20424;-75
2021/10/28 02:38:59;;;;;;;42.83;19.80;;;8.60;99.90;;;;;;5013606;28;20708;-76
2021/10/28 02:41:25;;;;;;;40.27;18.60;;;8.70;99.90;;;;;;5013684;28;20207;-76
2021/10/28 02:43:52;;;;;;;46.43;21.90;;;8.70;99.90;;;;;;5013718;28;20168;-76
2021/10/28 02:46:18;;;;;;;43.53;20.33;;;8.60;99.90;;;;;;5012864;28;20252;-75
2021/10/28 02:48:43;;;;;;;38.73;18.90;;;8.60;99.90;;;;;;5013688;28;20950;-75
2021/10/28 02:51:09;;;;;;;37.00;18.50;;;8.50;99.90;;;;;;5013027;28;20603;-75
2021/10/28 02:53:34;;;;;;;40.20;19.40;;;8.40;99.90;;;;;;5015904;28;20205;-75
2021/10/28 02:56:00;;;;;;;44.47;19.80;;;8.50;99.90;;;;;;5024106;28;20204;-75
2021/10/28 02:58:26;;;;;;;46.50;21.37;;;8.50;99.90;;;;;;5023121;28;20235;-76
2021/10/28 03:00:51;;;;;;;41.53;19.83;;;8.40;99.90;;;;;;5009509;28;20241;-76
2021/10/28 03:03:17;;;;;;;40.50;19.60;;;8.40;99.90;;;;;;5013536;28;20176;-76
2021/10/28 03:05:43;;;;;;;53.10;21.20;;;8.40;99.90;;;;;;5012801;28;20270;-76
2021/10/28 03:08:09;;;;;;;53.90;21.30;;;8.40;99.90;;;;;;5013828;28;20296;-75
2021/10/28 03:10:35;;;;;;;42.13;19.07;;;8.50;99.90;;;;;;5019761;28;20437;-76
2021/10/28 03:13:01;;;;;;;63.00;22.47;;;8.50;99.90;;;;;;5019003;28;20205;-75
2021/10/28 03:15:32;;;;;;;49.67;21.60;;;8.40;99.90;;;;;;5019850;28;20694;-75
2021/10/28 03:26:00;;;;;;;62.77;22.83;;;8.50;99.90;;;;;;5011066;28;20814;-75
2021/10/28 03:28:26;;;;;;;48.70;20.30;;;8.40;99.90;;;;;;5010176;28;20428;-76
2021/10/28 03:30:52;;;;;;;51.23;20.90;;;8.50;99.90;;;;;;5008029;28;20176;-76
2021/10/28 03:33:21;;;;;;;44.17;20.90;;;8.60;99.90;;;;;;5011783;28;20687;-76
2021/10/28 03:35:47;;;;;;;42.10;19.83;;;8.50;99.90;;;;;;5011870;28;20196;-77
2021/10/28 03:38:23;;;;;;;50.83;22.10;;;8.50;99.90;;;;;;5012774;28;20727;-77
2021/10/28 04:19:02;;;;;;;54.17;22.50;;;8.50;99.90;;;;;;5015248;28;20563;-77
2021/10/28 04:21:14;;;;;;;53.53;23.43;;;8.50;99.90;;;;;;5017525;28;20459;-77
2021/10/28 04:29:07;;;;;;;77.13;23.60;;;8.40;99.90;;;;;;5014050;28;20414;-77
2021/10/28 04:31:36;;;;;;;56.87;22.70;;;8.50;99.90;;;;;;5013345;28;20782;-76
2021/10/28 04:34:05;;;;;;;52.17;22.50;;;8.50;99.90;;;;;;5012961;28;20256;-76
2021/10/28 04:36:32;;;;;;;57.93;23.83;;;8.50;99.90;;;;;;5012770;28;20415;-77
2021/10/28 04:38:59;;;;;;;51.73;23.50;;;8.50;99.90;;;;;;5011201;28;20462;-76
2021/10/28 04:41:25;;;;;;;64.27;24.40;;;8.50;99.90;;;;;;5000973;28;20928;-76
2021/10/28 04:43:51;;;;;;;58.27;22.57;;;8.40;99.90;;;;;;5000603;28;20424;-76
2021/10/28 04:46:17;;;;;;;56.77;20.90;;;8.40;99.90;;;;;;5011824;28;20866;-76
2021/10/28 04:48:43;;;;;;;54.63;23.10;;;8.40;99.90;;;;;;5013549;28;20264;-76
2021/10/28 04:51:09;;;;;;;56.13;23.40;;;8.40;99.90;;;;;;5012760;28;20497;-75
2021/10/28 04:53:35;;;;;;;54.03;23.50;;;8.40;99.90;;;;;;5013643;28;20481;-76
2021/10/28 04:56:01;;;;;;;63.57;24.70;;;8.40;99.90;;;;;;5005988;28;20697;-76
2021/10/28 04:58:27;;;;;;;57.47;23.30;;;8.40;99.90;;;;;;4995292;28;20467;-76
2021/10/28 05:00:52;;;;;;;62.33;23.30;;;8.40;99.90;;;;;;5013009;28;20493;-76
2021/10/28 05:03:18;;;;;;;56.03;23.80;;;8.40;99.90;;;;;;5016186;28;20645;-76
2021/10/28 05:05:44;;;;;;;53.77;22.77;;;8.40;99.90;;;;;;5014169;28;20208;-76
2021/10/28 05:08:10;;;;;;;64.40;22.00;;;8.40;99.90;;;;;;5016330;28;20854;-75
2021/10/28 05:10:38;;;;;;;55.83;23.13;;;8.30;99.90;;;;;;5018886;28;20432;-75
2021/10/28 05:13:04;;;;;;;59.90;23.47;;;8.40;99.90;;;;;;5020818;28;20235;-75
2021/10/28 05:15:29;;;;;;;58.23;23.43;;;8.40;99.90;;;;;;5007522;28;20451;-76
2021/10/28 05:17:55;;;;;;;62.17;21.77;;;8.50;99.90;;;;;;4992489;28;20277;-76
2021/10/28 05:20:21;;;;;;;49.20;22.50;;;8.50;99.90;;;;;;5001101;28;20184;-76
2021/10/28 05:22:46;;;;;;;59.10;24.10;;;8.40;99.90;;;;;;5012426;28;20199;-77
2021/10/28 05:25:12;;;;;;;57.17;22.40;;;8.50;99.90;;;;;;5010464;28;20209;-75
2021/10/28 05:27:37;;;;;;;58.10;24.10;;;8.50;99.90;;;;;;5011451;28;20185;-75
2021/10/28 05:30:04;;;;;;;60.17;24.77;;;8.40;99.90;;;;;;5020130;28;20326;-75
2021/10/28 05:32:29;;;;;;;62.83;23.10;;;8.40;99.90;;;;;;5034527;28;20211;-76
2021/10/28 05:34:59;;;;;;;58.87;24.60;;;8.40;99.90;;;;;;5021045;28;20950;-76
2021/10/28 05:37:26;;;;;;;50.53;24.00;;;8.40;99.90;;;;;;5014521;28;20180;-76
2021/10/28 05:39:51;;;;;;;65.43;24.73;;;8.40;99.90;;;;;;5012222;28;20445;-76
2021/10/28 05:42:17;;;;;;;56.10;22.53;;;8.40;99.90;;;;;;4998420;28;20562;-76
2021/10/28 05:44:42;;;;;;;57.07;23.43;;;8.30;99.90;;;;;;4994413;28;20555;-75
2021/10/28 05:47:08;;;;;;;64.77;26.47;;;8.40;99.90;;;;;;5009564;28;20177;-75
2021/10/28 05:49:33;;;;;;;57.03;24.63;;;8.40;99.90;;;;;;5012245;28;20207;-75
2021/10/28 05:51:59;;;;;;;54.00;25.10;;;8.40;99.90;;;;;;5012593;28;20262;-74
2021/10/28 05:54:25;;;;;;;64.23;25.43;;;8.40;99.90;;;;;;4995634;28;20197;-76
2021/10/28 05:56:51;;;;;;;63.80;24.77;;;8.40;99.90;;;;;;4995370;28;20642;-75
2021/10/28 05:59:17;;;;;;;62.30;24.70;;;8.40;99.90;;;;;;4995256;28;20200;-75
2021/10/28 06:01:42;;;;;;;65.60;24.60;;;8.40;99.90;;;;;;5010725;28;20481;-76
2021/10/28 06:04:08;;;;;;;66.47;26.27;;;8.40;99.90;;;;;;5013986;28;20173;-75
2021/10/28 06:06:34;;;;;;;58.23;23.10;;;8.30;99.90;;;;;;5014491;28;20211;-74
2021/10/28 06:08:59;;;;;;;55.37;24.10;;;8.30;99.90;;;;;;4998995;28;20181;-75
2021/10/28 06:11:25;;;;;;;60.90;26.00;;;8.40;99.90;;;;;;4994305;28;20475;-74
2021/10/28 06:13:52;;;;;;;54.90;25.40;;;8.40;99.90;;;;;;5013538;28;20616;-75
2021/10/28 06:16:17;;;;;;;63.00;24.80;;;8.40;99.90;;;;;;5013601;28;20215;-74
2021/10/28 06:18:43;;;;;;;59.87;24.30;;;8.30;99.90;;;;;;5013970;28;20409;-75
2021/10/28 06:21:11;;;;;;;61.57;24.00;;;8.30;99.90;;;;;;5013694;28;20226;-75
2021/10/28 06:23:38;;;;;;;64.00;28.43;;;8.20;99.90;;;;;;4999431;28;20424;-75
2021/10/28 06:26:04;;;;;;;62.90;26.47;;;8.20;99.90;;;;;;5002892;28;20535;-75
2021/10/28 06:28:30;;;;;;;56.77;25.10;;;8.30;99.90;;;;;;5013700;28;20518;-75
2021/10/28 06:30:56;;;;;;;66.13;25.40;;;8.30;99.90;;;;;;5013329;28;20427;-75
2021/10/28 06:33:25;;;;;;;64.57;27.90;;;8.30;99.90;;;;;;5013377;28;20486;-75
2021/10/28 06:35:51;;;;;;;64.20;25.47;;;8.40;99.90;;;;;;5013550;28;20283;-75
2021/10/28 06:38:17;;;;;;;62.40;26.73;;;8.40;99.90;;;;;;5000314;28;20431;-75
2021/10/28 06:40:43;;;;;;;60.33;25.07;;;8.40;99.90;;;;;;4993826;28;20417;-75
2021/10/28 06:43:09;;;;;;;63.80;26.33;;;8.40;99.90;;;;;;4994491;28;20239;-75
2021/10/28 06:45:36;;;;;;;62.90;26.83;;;8.50;99.90;;;;;;5006404;28;20454;-76
2021/10/28 06:48:03;;;;;;;58.83;25.90;;;8.50;99.90;;;;;;5014566;28;20467;-77
2021/10/28 06:50:33;;;;;;;58.47;26.27;;;8.50;99.90;;;;;;5013926;28;20427;-76
2021/10/28 06:53:06;;;;;;;67.77;26.33;;;8.50;99.90;;;;;;5010692;28;20468;-76
2021/10/28 07:03:44;;;;;;;59.57;26.60;;;8.70;99.90;;;;;;4993761;28;20918;-76
2021/10/28 07:06:12;;;;;;;62.27;27.13;;;8.80;99.90;;;;;;4993661;28;20456;-77
2021/10/28 07:08:42;;;;;;;64.23;28.37;;;8.90;99.90;;;;;;4995409;28;20652;-76
2021/10/28 07:11:11;;;;;;;57.90;24.67;;;8.90;99.90;;;;;;5008275;28;20443;-76
2021/10/28 07:13:40;;;;;;;74.83;28.80;;;8.90;99.90;;;;;;5003447;28;20460;-76
2021/10/28 07:16:17;;;;;;;53.43;25.73;;;9.00;99.90;;;;;;4996832;28;20475;-76
2021/10/28 07:18:51;;;;;;;67.10;26.50;;;9.10;99.90;;;;;;5013741;28;20446;-74
2021/10/28 07:31:56;;;;;;;68.17;28.90;;;9.20;99.90;;;;;;5008910;28;20228;-76
2021/10/28 07:58:29;;;;;;;54.80;24.10;;;10.00;99.90;;;;;;5016094;28;21218;-74
2021/10/28 08:19:50;;;;;;;54.23;23.77;;;10.70;90.40;;;;;;5011086;28;20436;-73
2021/10/28 08:22:24;;;;;;;39.23;20.60;;;10.80;90.40;;;;;;5010800;28;20496;-74
2021/10/28 08:30:21;;;;;;;40.30;20.60;;;11.10;85.40;;;;;;5018269;28;20485;-74
2021/10/28 08:32:48;;;;;;;41.30;18.97;;;11.10;79.20;;;;;;5011588;28;20467;-73
2021/10/28 08:35:14;;;;;;;33.17;18.93;;;11.20;79.00;;;;;;5010513;28;20451;-73
2021/10/28 08:37:56;;;;;;;36.73;18.77;;;11.20;78.80;;;;;;5004671;28;20427;-73
2021/10/28 08:40:22;;;;;;;38.80;20.97;;;11.20;78.90;;;;;;5009298;28;20434;-73
2021/10/28 08:42:48;;;;;;;38.43;20.27;;;11.30;76.50;;;;;;5011577;28;20411;-74
2021/10/28 08:45:17;;;;;;;34.13;18.13;;;11.30;71.90;;;;;;5012029;28;20845;-78
2021/10/28 08:47:47;;;;;;;36.80;18.40;;;11.50;73.40;;;;;;5007320;28;20562;-76
2021/10/28 08:50:20;;;;;;;39.97;19.47;;;11.60;68.70;;;;;;5002727;28;20533;-75
2021/10/28 08:52:56;;;;;;;34.03;18.77;;;11.70;68.80;;;;;;5003367;28;20872;-74
2021/10/28 08:56:27;;;;;;;33.47;18.10;;;11.80;65.90;;;;;;5010082;28;20859;-76
2021/10/28 09:51:15;;;;;;;24.30;14.27;;;13.30;49.00;;;;;;5015658;28;20489;-76
2021/10/28 09:54:33;;;;;;;22.30;12.87;;;13.50;46.40;;;;;;5014005;28;20503;-77
2021/10/28 09:59:54;;;;;;;26.57;13.73;;;13.60;45.60;;;;;;5010923;28;20801;-76
2021/10/28 10:02:38;;;;;;;24.93;14.50;;;13.70;45.60;;;;;;5002307;28;20425;-76
2021/10/28 10:05:20;;;;;;;19.57;12.20;;;13.70;44.80;;;;;;5008563;28;20463;-75
2021/10/28 10:07:47;;;;;;;30.40;14.17;;;13.80;44.60;;;;;;5009623;28;20511;-76
2021/10/28 10:10:28;;;;;;;26.60;13.37;;;13.90;43.20;;;;;;5006830;28;20459;-76
2021/10/28 10:12:58;;;;;;;25.60;12.70;;;13.90;41.60;;;;;;5012199;28;20479;-76
2021/10/28 10:15:23;;;;;;;27.47;13.60;;;13.90;42.30;;;;;;5015224;28;20434;-76
2021/10/28 10:17:58;;;;;;;25.20;12.80;;;14.00;42.40;;;;;;5015962;28;20849;-77
2021/10/28 10:20:48;;;;;;;21.47;12.60;;;14.00;42.10;;;;;;5012395;28;21149;-76
2021/10/28 12:17:48;;;;;;;15.90;8.43;;;16.40;30.10;;;;;;5002187;28;20419;-75
2021/10/28 12:25:28;;;;;;;27.20;9.53;;;16.40;30.20;;;;;;5004594;28;20347;-75
2021/10/28 13:49:13;;;;;;;22.77;8.33;;;17.80;26.10;;;;;;4996479;28;20982;-72
2021/10/28 13:59:49;;;;;;;9.33;6.73;;;19.00;22.80;;;;;;4998913;28;20923;-74
2021/10/28 14:24:38;;;;;;;8.80;6.90;;;19.40;21.30;;;;;;4996618;28;20442;-75
2021/10/28 14:32:39;;;;;;;13.07;7.50;;;19.50;20.80;;;;;;4995575;28;20932;-73
2021/10/28 15:02:31;;;;;;;18.23;9.07;;;18.20;25.20;;;;;;4990011;28;20432;-72
2021/10/28 15:29:46;;;;;;;22.83;11.93;;;16.00;32.30;;;;;;5000755;28;20471;-72
2021/10/28 15:32:47;;;;;;;20.43;12.03;;;15.70;33.60;;;;;;4990107;28;20482;-74
2021/10/28 15:35:22;;;;;;;17.37;11.67;;;15.40;35.00;;;;;;4994735;28;20419;-76
2021/10/28 16:23:48;;;;;;;29.53;16.27;;;13.50;47.00;;;;;;5002505;28;20445;-73
2021/10/28 16:26:14;;;;;;;29.20;14.83;;;13.40;48.10;;;;;;4998490;28;20416;-73
2021/10/28 16:28:39;;;;;;;32.60;17.20;;;13.40;48.30;;;;;;4987171;28;20189;-75
2021/10/28 16:31:05;;;;;;;33.83;17.87;;;13.30;48.80;;;;;;4997585;28;20644;-74
2021/10/28 16:33:31;;;;;;;30.70;17.20;;;13.30;49.30;;;;;;4988381;28;20210;-74
2021/10/28 16:35:56;;;;;;;30.73;17.77;;;13.20;49.40;;;;;;4991583;28;20184;-74
2021/10/28 16:38:24;;;;;;;31.80;18.30;;;13.10;50.30;;;;;;4989651;28;20452;-75
2021/10/28 16:40:49;;;;;;;32.27;18.10;;;13.00;50.90;;;;;;4986724;28;20170;-72
2021/10/28 16:43:15;;;;;;;29.27;17.70;;;13.00;51.60;;;;;;4989500;28;20503;-74
2021/10/28 16:45:45;;;;;;;34.60;17.37;;;12.90;52.40;;;;;;4993222;28;20188;-74
2021/10/28 16:48:11;;;;;;;29.17;18.00;;;12.80;53.40;;;;;;4990239;28;20247;-73
2021/10/28 16:50:37;;;;;;;33.17;18.60;;;12.80;53.60;;;;;;4990607;28;20424;-73
2021/10/28 16:53:04;;;;;;;34.40;20.53;;;12.70;53.60;;;;;;4983719;28;20205;-75
2021/10/28 16:55:30;;;;;;;36.80;20.40;;;12.70;53.70;;;;;;5001339;28;20419;-72
2021/10/28 16:57:56;;;;;;;48.27;22.37;;;12.60;54.60;;;;;;5003023;28;20429;-72
2021/10/28 17:00:22;;;;;;;40.00;21.27;;;12.60;54.60;;;;;;5005093;28;20874;-73
2021/10/28 17:02:48;;;;;;;40.07;20.60;;;12.50;56.20;;;;;;5001021;28;20554;-72
2021/10/28 17:05:15;;;;;;;50.17;20.97;;;12.50;55.40;;;;;;5005190;28;20513;-72
2021/10/28 17:07:41;;;;;;;40.57;20.23;;;12.50;55.90;;;;;;5001065;28;20185;-71
2021/10/28 17:10:07;;;;;;;34.20;19.33;;;12.50;56.10;;;;;;4997696;28;20450;-73
2021/10/28 17:12:35;;;;;;;38.03;21.03;;;12.40;56.10;;;;;;4999339;28;20239;-73
2021/10/28 17:15:00;;;;;;;36.23;20.50;;;12.40;56.80;;;;;;4994931;28;20424;-70
2021/10/28 17:17:26;;;;;;;36.53;21.00;;;12.30;57.70;;;;;;4976338;28;20441;-71
2021/10/28 17:19:52;;;;;;;39.90;22.20;;;12.30;57.20;;;;;;4975897;28;20217;-70
2021/10/28 17:22:18;;;;;;;43.00;22.83;;;12.30;57.50;;;;;;4975326;28;20178;-72
2021/10/28 17:24:49;;;;;;;45.87;22.07;;;12.20;58.20;;;;;;4995510;28;20264;-70
2021/10/28 17:27:15;;;;;;;43.03;23.00;;;12.20;58.60;;;;;;4978304;28;20792;-72
2021/10/28 17:29:41;;;;;;;45.73;23.70;;;12.10;58.50;;;;;;4986511;28;20435;-73
2021/10/28 17:32:08;;;;;;;46.17;24.20;;;12.00;60.50;;;;;;5014469;28;20426;-71
2021/10/28 17:34:34;;;;;;;57.07;24.17;;;12.00;61.00;;;;;;4997215;28;20554;-70
2021/10/28 17:37:01;;;;;;;43.10;23.27;;;11.90;61.50;;;;;;4996521;28;20855;-70
2021/10/28 17:39:27;;;;;;;43.30;23.57;;;11.90;62.10;;;;;;4998739;28;20449;-72
2021/10/28 17:41:54;;;;;;;43.97;21.00;;;11.80;62.20;;;;;;5016333;28;20419;-72
2021/10/28 17:44:23;;;;;;;49.50;22.70;;;11.80;62.60;;;;;;5016152;28;20422;-71
2021/10/28 17:46:49;;;;;;;41.57;21.30;;;11.80;62.20;;;;;;5015537;28;20407;-69
2021/10/28 17:49:15;;;;;;;52.73;23.13;;;11.80;61.90;;;;;;5015584;28;20759;-71
2021/10/28 17:51:41;;;;;;;46.37;25.23;;;11.70;63.60;;;;;;5017411;28;20629;-72
2021/10/28 17:54:11;;;;;;;40.37;24.07;;;11.60;63.30;;;;;;5012319;28;20463;-72
2021/10/28 17:56:40;;;;;;;46.10;23.70;;;11.60;64.60;;;;;;4998896;28;20511;-72
2021/10/28 17:59:07;;;;;;;47.23;26.10;;;11.50;65.30;;;;;;4998602;28;20443;-73
2021/10/28 18:01:33;;;;;;;47.80;24.13;;;11.50;65.00;;;;;;4997609;28;20769;-72
2021/10/28 18:04:00;;;;;;;49.53;25.60;;;11.50;65.20;;;;;;4996707;28;20832;-71
2021/10/28 18:06:30;;;;;;;54.00;26.83;;;11.40;66.10;;;;;;4995464;28;20806;-71
2021/10/28 18:08:56;;;;;;;49.43;25.40;;;11.30;66.70;;;;;;4998612;28;20485;-72
2021/10/28 18:11:23;;;;;;;47.20;27.70;;;11.30;67.50;;;;;;4994097;28;20434;-72
2021/10/28 18:13:53;;;;;;;49.10;25.40;;;11.30;67.50;;;;;;5001543;28;20491;-71
2021/10/28 18:16:19;;;;;;;52.10;25.60;;;11.20;68.60;;;;;;4995264;28;20452;-70
2021/10/28 18:18:45;;;;;;;55.47;26.60;;;11.20;69.30;;;;;;4995308;28;20442;-71
2021/10/28 18:21:10;;;;;;;55.17;27.40;;;11.10;69.30;;;;;;4995047;28;20768;-72
2021/10/28 18:23:43;;;;;;;51.40;25.80;;;11.10;69.60;;;;;;4995333;28;20220;-72
2021/10/28 18:26:09;;;;;;;44.80;24.30;;;11.10;69.50;;;;;;4995451;28;20280;-71
2021/10/28 18:28:35;;;;;;;50.10;24.90;;;11.10;69.90;;;;;;4995705;28;20463;-71
2021/10/28 18:31:01;;;;;;;49.50;23.90;;;11.00;70.50;;;;;;4995308;28;20180;-71
2021/10/28 18:33:26;;;;;;;54.97;24.80;;;11.00;70.40;;;;;;4994914;28;20964;-72
2021/10/28 18:35:52;;;;;;;47.43;25.90;;;11.00;71.40;;;;;;4994772;28;20279;-71
2021/10/28 18:38:19;;;;;;;47.73;24.23;;;10.90;71.20;;;;;;4994742;28;20182;-72
2021/10/28 18:40:44;;;;;;;50.70;25.33;;;10.90;71.70;;;;;;4994611;28;20428;-70
2021/10/28 18:43:10;;;;;;;57.53;26.70;;;10.90;71.60;;;;;;4994394;28;20895;-70
2021/10/28 18:45:36;;;;;;;55.03;26.23;;;10.90;70.80;;;;;;4994526;28;20654;-71
2021/10/28 18:48:02;;;;;;;48.77;25.17;;;10.90;71.90;;;;;;4994508;28;20416;-72
2021/10/28 18:50:28;;;;;;;42.80;25.80;;;10.80;71.80;;;;;;4992890;28;20189;-71
2021/10/28 18:52:54;;;;;;;52.17;25.50;;;10.70;74.60;;;;;;4995262;28;20246;-71
2021/10/28 18:55:19;;;;;;;54.60;27.23;;;10.70;73.20;;;;;;4994826;28;20934;-72
2021/10/28 18:57:45;;;;;;;58.07;26.40;;;10.70;74.60;;;;;;4994458;28;20528;-71
2021/10/28 19:00:11;;;;;;;54.07;27.00;;;10.70;74.90;;;;;;4994345;28;20261;-71
2021/10/28 19:02:37;;;;;;;53.97;26.60;;;10.60;75.60;;;;;;4993970;28;20254;-71
2021/10/28 19:05:07;;;;;;;67.80;27.30;;;10.60;76.70;;;;;;4994694;28;20421;-71
2021/10/28 19:07:33;;;;;;;55.50;25.90;;;10.60;75.80;;;;;;5011466;28;20600;-70
2021/10/28 19:09:59;;;;;;;58.00;26.53;;;10.60;75.30;;;;;;4998886;28;21041;-70
2021/10/28 19:12:25;;;;;;;60.73;27.60;;;10.60;75.70;;;;;;4993894;28;20342;-70
2021/10/28 19:14:52;;;;;;;57.53;27.77;;;10.50;76.60;;;;;;4994266;28;20772;-71
2021/10/28 19:17:17;;;;;;;56.90;26.90;;;10.50;77.40;;;;;;4994657;28;20904;-72
2021/10/28 19:19:43;;;;;;;54.50;25.17;;;10.50;76.60;;;;;;5027693;23;20644;-79
2021/10/28 19:22:09;;;;;;;53.03;27.37;;;10.40;77.50;;;;;;5039423;28;20187;-78
2021/10/28 19:24:36;;;;;;;57.20;28.13;;;10.40;75.30;;;;;;5041661;28;20177;-75
2021/10/28 19:27:02;;;;;;;50.93;26.10;;;10.40;76.30;;;;;;5051193;28;20184;-79
2021/10/28 19:29:28;;;;;;;52.80;26.80;;;10.30;76.90;;;;;;5040442;28;20439;-80
2021/10/28 19:32:08;;;;;;;56.60;25.30;;;10.40;75.90;;;;;;5044387;28;20427;-80
2021/10/28 19:34:38;;;;;;;78.77;29.37;;;10.30;76.40;;;;;;5050174;28;20394;-76
2021/10/28 19:37:15;;;;;;;61.57;27.70;;;10.30;75.40;;;;;;5048560;28;20420;-78
2021/10/28 19:47:19;;;;;;;62.37;28.07;;;10.20;78.20;;;;;;5038738;28;20222;-79
2021/10/28 19:49:46;;;;;;;58.03;26.23;;;10.10;77.80;;;;;;5036439;28;20951;-77
2021/10/28 19:52:16;;;;;;;57.37;25.80;;;10.10;78.70;;;;;;5036662;28;20216;-78
2021/10/28 19:54:44;;;;;;;57.70;27.03;;;10.10;78.30;;;;;;5038113;28;20412;-79
2021/10/28 19:57:24;;;;;;;53.50;25.17;;;10.10;78.00;;;;;;5037840;28;20423;-79
2021/10/28 19:59:53;;;;;;;54.90;28.63;;;10.10;78.20;;;;;;5036338;28;20443;-79
2021/10/28 20:08:11;;;;;;;61.53;29.70;;;9.90;80.70;;;;;;5039116;28;20490;-79
2021/10/28 20:20:58;;;;;;;61.87;28.77;;;9.80;81.10;;;;;;5040146;28;20441;-77
2021/10/28 20:23:23;;;;;;;54.10;25.43;;;9.80;80.90;;;;;;5037244;28;20791;-77
2021/10/28 20:25:49;;;;;;;62.90;28.47;;;9.70;82.30;;;;;;5036878;28;20176;-79
2021/10/28 20:28:14;;;;;;;59.50;27.67;;;9.70;82.20;;;;;;5046930;28;20211;-78
2021/10/28 20:30:57;;;;;;;63.07;28.27;;;9.70;82.60;;;;;;5041420;28;20662;-79
2021/10/28 20:33:25;;;;;;;56.13;26.97;;;9.70;83.00;;;;;;5029759;28;20209;-75
2021/10/28 20:38:17;;;;;;;58.60;28.57;;;9.70;84.20;;;;;;5030682;28;20927;-76
2021/10/28 20:40:42;;;;;;;58.87;26.57;;;9.70;81.90;;;;;;5032658;28;20194;-75
2021/10/28 20:43:08;;;;;;;53.27;25.20;;;9.70;81.30;;;;;;5028473;28;20457;-75
2021/10/28 20:45:35;;;;;;;61.30;27.90;;;9.70;81.70;;;;;;5029804;28;20613;-75
2021/10/28 20:48:00;;;;;;;52.03;26.00;;;9.60;81.60;;;;;;5031290;28;20479;-75
2021/10/28 20:50:27;;;;;;;57.57;27.07;;;9.70;81.00;;;;;;5025775;28;20982;-73
2021/10/28 20:52:55;;;;;;;56.03;27.17;;;9.70;79.80;;;;;;5026570;28;20308;-74
2021/10/28 20:55:21;;;;;;;51.93;27.43;;;9.80;78.80;;;;;;5029574;28;20518;-75
2021/10/28 20:57:48;;;;;;;51.37;25.77;;;9.70;78.70;;;;;;5025930;28;20440;-74
2021/10/28 21:00:17;;;;;;;50.27;24.40;;;9.70;78.40;;;;;;5031874;28;20474;-74
2021/10/28 21:02:44;;;;;;;64.93;26.20;;;9.70;79.10;;;;;;5033607;28;20454;-75
2021/10/28 21:05:13;;;;;;;56.93;26.57;;;9.60;80.20;;;;;;5034908;28;20427;-75
2021/10/28 21:07:41;;;;;;;53.10;25.17;;;9.60;80.90;;;;;;5035474;28;20430;-74
2021/10/28 21:10:08;;;;;;;52.50;25.93;;;9.60;80.90;;;;;;5034664;28;20481;-74
2021/10/28 21:12:34;;;;;;;54.20;26.67;;;9.60;79.10;;;;;;5026873;28;20520;-74
2021/10/28 21:15:00;;;;;;;59.83;25.33;;;9.60;79.40;;;;;;5035015;28;20752;-74
2021/10/28 21:17:27;;;;;;;55.80;26.33;;;9.60;78.70;;;;;;5016585;28;20448;-75
2021/10/28 21:19:52;;;;;;;56.23;26.57;;;9.60;79.80;;;;;;5035069;28;20915;-75
2021/10/28 21:22:18;;;;;;;54.40;24.57;;;9.50;80.50;;;;;;5037557;28;20434;-75
2021/10/28 21:24:46;;;;;;;63.07;26.80;;;9.50;80.60;;;;;;5036814;28;20517;-75
2021/10/28 21:27:12;;;;;;;50.63;25.27;;;9.60;80.90;;;;;;5035239;28;20508;-75
2021/10/28 21:29:39;;;;;;;56.03;25.40;;;9.50;82.00;;;;;;5037776;28;20441;-74
2021/10/28 21:32:05;;;;;;;48.80;25.70;;;9.50;80.80;;;;;;5037108;28;20180;-74
2021/10/28 21:34:31;;;;;;;55.87;25.07;;;9.50;81.60;;;;;;5029831;28;20497;-74
2021/10/28 21:36:57;;;;;;;54.53;23.73;;;9.50;81.70;;;;;;5034587;28;20426;-75
2021/10/28 21:39:22;;;;;;;52.10;24.40;;;9.50;82.00;;;;;;5034447;28;20203;-74
2021/10/28 21:41:48;;;;;;;47.63;23.80;;;9.40;80.50;;;;;;5032838;28;20410;-74
2021/10/28 21:44:17;;;;;;;51.47;26.03;;;9.40;81.30;;;;;;5034008;28;20211;-75